00:33
Airports
History
Links
Donate
Help keep this website running!
PayPal
Bitcoin
Information on this page is community maintained and may be outdated or inaccurate and is intended for reference only or PC simulator navigating.
Always use approved charts for navigating.
MM17
LA RETAMA SOUTHWEST
LA RETAMA SOUTHWEST (MM17)
Tamaulipas, Mexico
(U)
Lat/Lng:23° 57' 58.65" N / 98° 50' 5.15" W
23.966292 / -98.834764
Elevation:2000'ft 610mMSL
ID / ICAO:MM17
Runways:1
Longest:(17-35) 933.4m 3,062ft Asphalt
Distance To
Airport ID:
Nearby VORs <50NM
Nearby NDBs
Nearby WeatherUpdated 07-24-17 23:53 GMT
Nearby weather at MMCV, GENERAL PEDRO JOSE MENDEZ INTL located 19.7 nautical miles from MM17
Altimeter: 29.89
Visibility: 8.0 statute miles
Wind: 15 knots (180°)
Temp: 33°c 91°f
Humidity: 41.0%

METAR: MMCV 242353Z 18015KT 8SM FEW200 33/18 A2989 RMK SLP104 57010 914 8/005 E15015KT ISOL CU HZY

(Powered by phpweather)
Runway 17 / 35
Dimensions:933.4 x 13.4m 3062' x 44'ft
Surface:Asphalt
Runway 17 [A]Runway 35 [B]
Heading:179°TH 359°TH
Lat:
Lng:
23° 58' 13.9"N
98° 50' 5.2"W
23° 57' 43.4"N
98° 50' 5.1"W
User Notes and Comments
Google Map
Nearby Airports
(C) GENERAL PEDRO JOSE MENDEZ INTL 19.7 NM
MMCV (WX) SSW 203°
(U) NUEVO DOLORES 27.3 NM
MM53 ENE 76°
(U) RANCHO MARINA VIEJA 51.4 NM
MM54 ESE 107°
(U) LA PESCA 68.0 NM
MM22 E 99°
(U) XICOTENCATL 70.4 NM
MM56 S 186°
(U) CUAUHTEMOC 85.5 NM
MM01 S 187°
(U) MATEHUALA 114.8 NM
MM67 W 259°
VFR Chart
Flight Planning at SkyVector.com